createdAt,value
2017-10-06T00:00:34.947Z,3.17
2017-10-06T00:03:03.122Z,2.83
2017-10-06T00:05:31.296Z,2.10
2017-10-06T00:07:59.454Z,2.75
2017-10-06T00:10:27.645Z,3.03
2017-10-06T00:12:55.820Z,2.70
2017-10-06T00:15:24.006Z,2.77
2017-10-06T00:17:52.207Z,2.50
2017-10-06T00:20:20.524Z,2.80
2017-10-06T00:22:48.690Z,2.85
2017-10-06T00:25:18.048Z,2.77
2017-10-06T00:27:46.516Z,2.65
2017-10-06T00:30:14.699Z,3.00
2017-10-06T00:32:42.923Z,3.00
2017-10-06T00:35:11.100Z,2.80
2017-10-06T00:37:39.268Z,3.33
2017-10-06T00:40:07.455Z,2.97
2017-10-06T00:42:35.624Z,3.00
2017-10-06T00:45:04.139Z,3.07
2017-10-06T00:47:32.326Z,3.28
2017-10-06T00:50:00.489Z,2.70
2017-10-06T00:52:28.668Z,3.17
2017-10-06T00:54:56.897Z,2.70
2017-10-06T00:57:25.398Z,3.30
2017-10-06T00:59:53.582Z,2.97
2017-10-06T01:02:21.746Z,3.00
2017-10-06T01:04:50.617Z,3.67
2017-10-06T01:07:18.793Z,3.12
2017-10-06T01:09:46.981Z,3.80
2017-10-06T01:12:15.160Z,3.50
2017-10-06T01:14:43.709Z,2.87
2017-10-06T01:17:11.881Z,3.53
2017-10-06T01:19:40.034Z,3.30
2017-10-06T01:22:08.994Z,3.30
2017-10-06T01:24:37.162Z,2.95
2017-10-06T01:27:06.081Z,3.53
2017-10-06T01:29:35.014Z,3.60
2017-10-06T01:32:03.505Z,3.33
2017-10-06T01:34:31.659Z,3.70
2017-10-06T01:36:59.847Z,4.62
2017-10-06T01:39:28.039Z,4.13
2017-10-06T01:41:56.209Z,4.20
2017-10-06T01:44:24.397Z,4.10
2017-10-06T01:46:52.573Z,4.32
2017-10-06T01:49:21.523Z,4.30
2017-10-06T01:51:49.695Z,4.62
2017-10-06T01:54:19.594Z,4.80
2017-10-06T01:56:47.750Z,4.68
2017-10-06T01:59:16.681Z,4.83
2017-10-06T02:01:44.837Z,4.65
2017-10-06T02:04:13.018Z,5.05
2017-10-06T02:06:41.628Z,5.45
2017-10-06T02:09:09.809Z,5.28
2017-10-06T02:11:38.012Z,4.95
2017-10-06T02:14:06.956Z,5.17
2017-10-06T02:16:35.138Z,5.35
2017-10-06T02:19:03.597Z,4.93
2017-10-06T02:21:31.770Z,4.85
2017-10-06T02:23:59.947Z,5.97
2017-10-06T02:26:28.136Z,4.65
2017-10-06T02:28:57.215Z,4.70
2017-10-06T02:31:25.392Z,4.47
2017-10-06T02:33:53.566Z,3.97
2017-10-06T02:36:21.896Z,3.80
2017-10-06T02:38:51.253Z,4.00
2017-10-06T02:41:19.431Z,3.83
2017-10-06T02:43:47.593Z,3.75
2017-10-06T02:46:16.082Z,4.53
2017-10-06T02:48:44.264Z,4.18
2017-10-06T02:51:12.446Z,3.62
2017-10-06T02:53:40.632Z,4.62
2017-10-06T02:56:08.805Z,3.57
2017-10-06T02:58:36.981Z,4.15
2017-10-06T03:01:05.131Z,3.97
2017-10-06T03:03:33.325Z,4.65
2017-10-06T03:06:01.491Z,4.45
2017-10-06T03:08:29.678Z,4.82
2017-10-06T03:10:57.830Z,5.40
2017-10-06T03:13:26.388Z,4.62
2017-10-06T03:15:54.546Z,4.60
2017-10-06T03:18:22.731Z,4.00
2017-10-06T03:20:50.906Z,4.47
2017-10-06T03:23:19.085Z,4.10
2017-10-06T03:25:47.275Z,3.92
2017-10-06T03:28:15.469Z,3.85
2017-10-06T03:30:43.636Z,3.70
2017-10-06T03:33:11.795Z,3.70
2017-10-06T03:35:40.352Z,3.97
2017-10-06T03:38:08.513Z,3.55
2017-10-06T03:40:36.684Z,3.60
2017-10-06T03:43:04.868Z,4.30
2017-10-06T03:45:33.068Z,3.60
2017-10-06T03:48:01.249Z,4.10
2017-10-06T03:50:29.417Z,5.07
2017-10-06T03:52:57.614Z,3.83
2017-10-06T03:55:26.547Z,4.00
2017-10-06T03:57:55.018Z,4.00
2017-10-06T04:00:23.170Z,4.40
2017-10-06T04:02:52.087Z,4.18
2017-10-06T04:05:20.258Z,4.57
2017-10-06T04:07:48.419Z,4.25
2017-10-06T04:10:16.570Z,4.83
2017-10-06T04:12:44.729Z,4.00
2017-10-06T04:15:12.892Z,4.33
2017-10-06T04:17:41.066Z,4.70
2017-10-06T04:20:09.528Z,4.03
2017-10-06T04:22:37.686Z,4.72
2017-10-06T04:25:05.858Z,3.93
2017-10-06T04:27:34.055Z,3.80
2017-10-06T04:30:02.212Z,4.33
2017-10-06T04:32:30.415Z,4.37
2017-10-06T04:34:58.596Z,4.30
2017-10-06T04:37:26.766Z,4.82
2017-10-06T04:39:54.950Z,4.03
2017-10-06T04:42:24.189Z,5.00
2017-10-06T04:44:52.349Z,4.87
2017-10-06T04:47:20.507Z,4.55
2017-10-06T04:49:48.702Z,5.40
2017-10-06T04:52:16.891Z,4.47
2017-10-06T04:54:45.856Z,4.37
2017-10-06T04:57:14.016Z,4.75
2017-10-06T04:59:42.966Z,5.13
2017-10-06T05:02:11.154Z,4.50
2017-10-06T05:04:39.580Z,4.83
2017-10-06T05:07:07.748Z,4.75
2017-10-06T05:09:35.908Z,4.87
2017-10-06T05:12:04.622Z,4.95
2017-10-06T05:14:32.918Z,4.93
2017-10-06T05:17:02.115Z,5.32
2017-10-06T05:19:30.355Z,4.50
2017-10-06T05:21:58.626Z,5.18
2017-10-06T05:24:26.801Z,5.30
2017-10-06T05:26:55.012Z,4.90
2017-10-06T05:29:23.322Z,4.83
2017-10-06T05:31:51.776Z,5.80
2017-10-06T05:34:19.941Z,4.97
2017-10-06T05:36:48.098Z,5.35
2017-10-06T05:39:16.272Z,6.05
2017-10-06T05:41:44.427Z,5.68
2017-10-06T05:44:12.612Z,5.87
2017-10-06T05:46:40.779Z,6.35
2017-10-06T05:49:08.963Z,6.10
2017-10-06T05:51:37.151Z,5.70
2017-10-06T05:54:05.363Z,5.57
2017-10-06T05:56:34.463Z,6.18
2017-10-06T05:59:02.625Z,6.28
2017-10-06T06:01:31.560Z,6.07
2017-10-06T06:03:59.748Z,5.85
2017-10-06T06:06:27.999Z,6.43
2017-10-06T06:08:56.182Z,5.50
2017-10-06T06:11:24.353Z,6.37
2017-10-06T06:13:52.654Z,5.77
2017-10-06T06:16:21.127Z,5.90
2017-10-06T06:18:49.291Z,6.12
2017-10-06T06:21:17.460Z,6.00
2017-10-06T06:23:45.963Z,6.20
2017-10-06T06:26:14.129Z,6.23
2017-10-06T06:28:42.302Z,6.20
2017-10-06T06:31:10.470Z,6.07
2017-10-06T06:33:38.717Z,4.90
2017-10-06T06:36:06.890Z,5.30
2017-10-06T06:38:35.406Z,4.65
2017-10-06T06:41:03.573Z,4.70
2017-10-06T06:43:31.751Z,5.75
2017-10-06T06:45:59.963Z,6.23
2017-10-06T06:48:28.907Z,5.70
2017-10-06T06:50:57.088Z,6.03
2017-10-06T06:53:25.295Z,5.20
2017-10-06T06:55:53.521Z,5.00
2017-10-06T06:58:21.705Z,5.40
2017-10-06T07:00:49.894Z,5.13
2017-10-06T07:03:18.066Z,5.25
2017-10-06T07:05:46.231Z,4.57
2017-10-06T07:08:14.405Z,4.80
2017-10-06T07:10:42.710Z,4.80
2017-10-06T07:13:11.668Z,4.55
2017-10-06T07:15:39.838Z,3.95
2017-10-06T07:18:08.029Z,4.78
2017-10-06T07:20:36.975Z,3.70
2017-10-06T07:23:05.161Z,3.60
2017-10-06T07:25:33.323Z,3.40
2017-10-06T07:28:01.536Z,3.97
2017-10-06T07:30:29.711Z,3.90
2017-10-06T07:32:58.624Z,3.20
2017-10-06T07:35:26.802Z,3.20
2017-10-06T07:37:55.729Z,3.53
2017-10-06T07:40:23.909Z,3.50
2017-10-06T07:42:52.071Z,2.70
2017-10-06T07:45:20.415Z,3.00
2017-10-06T07:47:49.352Z,3.25
2017-10-06T07:50:17.833Z,2.60
2017-10-06T07:52:45.999Z,2.80
2017-10-06T07:55:14.185Z,2.73
2017-10-06T07:57:42.359Z,2.53
2017-10-06T08:00:10.509Z,2.70
2017-10-06T08:02:38.699Z,3.37
2017-10-06T08:05:06.870Z,2.40
2017-10-06T08:07:45.413Z,2.20
2017-10-06T08:10:15.067Z,2.23
2017-10-06T08:12:44.017Z,2.15
2017-10-06T08:15:12.195Z,2.13
2017-10-06T08:17:40.385Z,2.00
2017-10-06T08:20:08.568Z,1.80
2017-10-06T08:22:37.537Z,2.25
2017-10-06T08:25:05.734Z,1.90
2017-10-06T08:27:34.666Z,2.05
2017-10-06T08:30:02.860Z,2.00
2017-10-06T08:32:31.035Z,1.83
2017-10-06T08:34:59.203Z,1.50
2017-10-06T08:37:27.369Z,1.50
2017-10-06T08:39:55.554Z,1.40
2017-10-06T08:42:23.719Z,1.20
2017-10-06T08:44:51.881Z,1.17
2017-10-06T08:47:20.071Z,0.75
2017-10-06T08:49:48.255Z,0.85
2017-10-06T08:52:16.446Z,0.82
2017-10-06T08:54:44.608Z,1.33
2017-10-06T08:57:12.864Z,0.73
2017-10-06T08:59:41.023Z,1.00
2017-10-06T09:02:09.243Z,0.85
2017-10-06T09:04:38.171Z,1.20
2017-10-06T09:07:06.362Z,0.75
2017-10-06T09:09:34.525Z,1.07
2017-10-06T09:12:02.718Z,1.00
2017-10-06T09:14:30.900Z,0.73
2017-10-06T09:16:59.077Z,1.40
2017-10-06T09:19:27.259Z,1.35
2017-10-06T09:21:55.419Z,0.70
2017-10-06T09:24:23.655Z,1.20
2017-10-06T09:26:51.813Z,1.12
2017-10-06T09:29:20.743Z,1.40
2017-10-06T09:31:49.706Z,1.00
2017-10-06T09:34:17.882Z,0.80
2017-10-06T09:36:46.053Z,1.15
2017-10-06T09:39:14.210Z,0.82
2017-10-06T09:41:42.662Z,0.82
2017-10-06T09:44:10.835Z,1.40
2017-10-06T09:46:39.010Z,0.98
2017-10-06T09:49:07.174Z,0.80
2017-10-06T09:51:35.345Z,1.08
2017-10-06T09:54:03.530Z,1.30
2017-10-06T09:56:32.471Z,1.08
2017-10-06T09:59:00.680Z,1.15
2017-10-06T10:01:28.838Z,1.10
2017-10-06T10:03:57.053Z,1.10
2017-10-06T10:06:26.026Z,1.10
2017-10-06T10:08:54.216Z,0.90
2017-10-06T10:11:23.163Z,0.97
2017-10-06T10:13:51.335Z,0.93
2017-10-06T10:16:19.506Z,1.05
2017-10-06T10:18:47.688Z,1.05
2017-10-06T10:21:15.878Z,1.10
2017-10-06T10:23:44.177Z,0.98
2017-10-06T10:26:13.117Z,1.00
2017-10-06T10:28:41.300Z,1.15
2017-10-06T10:31:09.490Z,1.23
2017-10-06T10:33:37.752Z,1.75
2017-10-06T10:36:05.965Z,1.00
2017-10-06T10:38:34.906Z,0.98
2017-10-06T10:41:03.084Z,1.12
2017-10-06T10:43:31.267Z,0.70
2017-10-06T10:45:59.441Z,0.85
2017-10-06T10:48:27.620Z,0.90
2017-10-06T10:50:55.794Z,0.95
2017-10-06T10:53:23.968Z,0.90
2017-10-06T10:55:52.130Z,1.02
2017-10-06T10:58:20.314Z,1.20
2017-10-06T11:00:48.483Z,0.80
2017-10-06T11:03:16.643Z,0.93
2017-10-06T11:05:44.846Z,0.73
2017-10-06T11:08:13.037Z,1.00
2017-10-06T11:10:41.659Z,0.80
2017-10-06T11:13:09.988Z,0.90
2017-10-06T11:15:38.965Z,0.85
2017-10-06T11:18:07.219Z,0.63
2017-10-06T11:20:35.381Z,0.90
2017-10-06T11:23:03.588Z,1.60
2017-10-06T11:25:31.769Z,1.25
2017-10-06T11:28:00.741Z,2.17
2017-10-06T11:30:28.916Z,1.20
2017-10-06T11:32:57.102Z,1.27
2017-10-06T11:35:25.262Z,1.60
2017-10-06T11:37:54.131Z,1.27
2017-10-06T11:40:22.326Z,1.30
2017-10-06T11:42:50.490Z,1.27
2017-10-06T11:45:18.684Z,1.50
2017-10-06T11:47:46.878Z,1.57
2017-10-06T11:50:15.833Z,1.10
2017-10-06T11:52:44.021Z,1.50
2017-10-06T11:55:12.198Z,1.30
2017-10-06T11:57:40.371Z,1.50
2017-10-06T12:00:08.542Z,1.40
2017-10-06T12:02:36.701Z,1.50
2017-10-06T12:05:04.911Z,1.75
2017-10-06T12:07:33.103Z,1.40
2017-10-06T12:10:01.319Z,1.15
2017-10-06T12:12:29.507Z,1.53
2017-10-06T12:14:58.057Z,1.52
2017-10-06T12:17:26.211Z,1.47
2017-10-06T12:19:54.402Z,1.10
2017-10-06T12:22:22.587Z,1.00
2017-10-06T12:24:50.759Z,1.00
2017-10-06T12:27:18.941Z,1.20
2017-10-06T12:29:47.114Z,1.20
2017-10-06T12:32:16.797Z,1.50
2017-10-06T12:34:45.055Z,1.52
2017-10-06T12:37:13.231Z,0.70
2017-10-06T12:39:41.402Z,1.20
2017-10-06T12:42:09.645Z,1.02
2017-10-06T12:44:38.591Z,1.12
2017-10-06T12:47:06.783Z,1.00
2017-10-06T12:49:34.967Z,0.80
2017-10-06T12:52:03.167Z,1.00
2017-10-06T12:54:32.091Z,1.20
2017-10-06T12:57:00.250Z,0.80
2017-10-06T12:59:28.456Z,0.82
2017-10-06T13:01:56.599Z,0.85
2017-10-06T13:04:24.769Z,0.82
2017-10-06T13:06:52.944Z,0.90
2017-10-06T13:09:21.148Z,1.10
2017-10-06T13:11:49.383Z,1.00
2017-10-06T13:14:18.305Z,1.05
2017-10-06T13:16:46.479Z,1.20
2017-10-06T13:19:14.849Z,1.77
2017-10-06T13:21:44.663Z,1.63
2017-10-06T13:24:13.029Z,1.50
2017-10-06T13:26:41.944Z,2.00
2017-10-06T13:29:10.119Z,2.20
2017-10-06T13:31:38.334Z,1.10
2017-10-06T13:34:07.316Z,1.15
2017-10-06T13:36:35.487Z,1.73
2017-10-06T13:39:03.704Z,1.70
2017-10-06T13:41:31.882Z,1.70
2017-10-06T13:44:00.094Z,1.73
2017-10-06T13:46:28.269Z,1.23
2017-10-06T13:48:56.437Z,1.55
2017-10-06T13:51:24.695Z,2.47
2017-10-06T13:53:52.918Z,2.30
2017-10-06T13:56:21.885Z,2.17
2017-10-06T13:58:50.084Z,2.22
2017-10-06T14:01:18.273Z,2.50
2017-10-06T14:03:46.655Z,1.90
2017-10-06T14:06:14.906Z,2.05
2017-10-06T14:08:43.854Z,2.03
2017-10-06T14:11:12.046Z,1.08
2017-10-06T14:13:40.258Z,0.40
2017-10-06T14:16:08.446Z,0.55
2017-10-06T14:18:36.647Z,0.80
2017-10-06T14:21:04.830Z,1.10
2017-10-06T14:23:33.064Z,1.50
2017-10-06T14:26:01.253Z,1.05
2017-10-06T14:28:29.721Z,0.80
2017-10-06T14:30:57.911Z,0.90
2017-10-06T14:33:26.083Z,1.00
2017-10-06T14:35:54.254Z,1.08
2017-10-06T14:38:22.492Z,2.30
2017-10-06T14:40:50.791Z,1.15
2017-10-06T14:43:18.973Z,2.10
2017-10-06T14:45:47.172Z,1.60
2017-10-06T14:48:15.397Z,1.70
2017-10-06T14:50:44.587Z,2.83
2017-10-06T14:53:13.558Z,3.27
2017-10-06T14:55:41.714Z,1.65
2017-10-06T14:58:09.989Z,2.50
2017-10-06T15:00:38.196Z,2.40
2017-10-06T15:03:07.147Z,1.50
2017-10-06T15:05:35.347Z,1.40
2017-10-06T15:08:03.534Z,1.73
2017-10-06T15:10:32.462Z,1.27
2017-10-06T15:13:00.656Z,1.97
2017-10-06T15:15:28.894Z,1.70
2017-10-06T15:17:57.139Z,2.07
2017-10-06T15:20:25.324Z,2.58
2017-10-06T15:22:54.290Z,1.77
2017-10-06T15:25:22.470Z,1.52
2017-10-06T15:27:50.640Z,1.90
2017-10-06T15:30:18.864Z,2.40
2017-10-06T15:32:47.061Z,1.90
2017-10-06T15:35:15.225Z,1.52
2017-10-06T15:37:43.399Z,1.60
2017-10-06T15:40:11.581Z,1.98
2017-10-06T15:42:39.729Z,1.97
2017-10-06T15:45:07.911Z,2.00
2017-10-06T15:47:36.085Z,1.87
2017-10-06T15:50:04.243Z,2.03
2017-10-06T15:52:32.434Z,2.43
2017-10-06T15:55:00.647Z,2.40
2017-10-06T15:57:28.831Z,3.07
2017-10-06T15:59:57.805Z,2.35
2017-10-06T16:02:26.000Z,1.80
2017-10-06T16:04:54.935Z,1.95
2017-10-06T16:07:23.114Z,2.13
2017-10-06T16:09:51.322Z,2.35
2017-10-06T16:12:19.492Z,2.00
2017-10-06T16:14:47.733Z,2.25
2017-10-06T16:17:15.905Z,2.07
2017-10-06T16:19:44.096Z,2.33
2017-10-06T16:22:12.282Z,2.53
2017-10-06T16:24:40.473Z,2.50
2017-10-06T16:27:08.709Z,2.67
2017-10-06T16:29:36.889Z,3.35
2017-10-06T16:32:05.358Z,2.60
2017-10-06T16:34:33.580Z,2.53
2017-10-06T16:37:01.750Z,2.83
2017-10-06T16:39:30.746Z,2.87
2017-10-06T16:41:58.942Z,2.83
2017-10-06T16:44:27.132Z,2.60
2017-10-06T16:46:55.380Z,3.20
2017-10-06T16:49:24.363Z,2.12
2017-10-06T16:51:52.558Z,2.00
2017-10-06T16:54:20.752Z,2.30
2017-10-06T16:56:48.956Z,2.08
2017-10-06T16:59:17.119Z,1.95
2017-10-06T17:01:45.312Z,2.50
2017-10-06T17:04:13.467Z,2.45
2017-10-06T17:06:41.709Z,2.33
2017-10-06T17:09:09.941Z,2.00
2017-10-06T17:11:38.280Z,2.30
2017-10-06T17:14:07.314Z,2.62
2017-10-06T17:16:36.295Z,1.80
2017-10-06T17:19:04.533Z,2.00
2017-10-06T17:21:32.715Z,1.73
2017-10-06T17:24:00.918Z,1.37
2017-10-06T17:26:29.089Z,1.70
2017-10-06T17:28:57.261Z,2.12
2017-10-06T17:31:25.436Z,2.20
2017-10-06T17:33:53.929Z,1.80
2017-10-06T17:36:22.098Z,1.83
2017-10-06T17:38:50.293Z,2.30
2017-10-06T17:41:19.257Z,2.05
2017-10-06T17:43:47.463Z,2.00
2017-10-06T17:46:16.402Z,2.00
2017-10-06T17:48:44.547Z,2.45
2017-10-06T17:51:12.718Z,1.90
2017-10-06T17:53:40.936Z,2.40
2017-10-06T17:56:09.128Z,1.83
2017-10-06T17:58:37.298Z,1.95
2017-10-06T18:01:05.879Z,2.15
2017-10-06T18:03:34.069Z,2.08
2017-10-06T18:06:03.039Z,2.35
2017-10-06T18:08:31.225Z,3.00
2017-10-06T18:10:59.409Z,2.95
2017-10-06T18:13:28.334Z,2.95
2017-10-06T18:15:56.512Z,3.05
2017-10-06T18:18:24.762Z,3.30
2017-10-06T18:20:52.997Z,2.45
2017-10-06T18:23:21.679Z,2.90
2017-10-06T18:25:49.867Z,3.70
2017-10-06T18:28:18.064Z,4.00
2017-10-06T18:30:47.007Z,4.50
2017-10-06T18:33:15.479Z,4.10
2017-10-06T18:35:43.660Z,4.43
2017-10-06T18:38:11.854Z,4.30
2017-10-06T18:40:43.966Z,3.50
2017-10-06T18:43:12.185Z,4.70
2017-10-06T18:45:40.385Z,4.25
2017-10-06T18:48:08.623Z,4.70
2017-10-06T18:50:36.801Z,5.20
2017-10-06T18:53:04.984Z,4.70
2017-10-06T18:55:33.221Z,4.57
2017-10-06T18:58:01.392Z,4.50
2017-10-06T19:00:29.556Z,5.10
2017-10-06T19:02:57.761Z,4.60
2017-10-06T19:05:25.954Z,5.90
2017-10-06T19:07:54.138Z,5.87
2017-10-06T19:10:23.088Z,5.90
2017-10-06T19:12:51.319Z,5.80
2017-10-06T19:15:19.576Z,5.60
2017-10-06T19:17:47.779Z,5.37
2017-10-06T19:20:15.985Z,6.03
2017-10-06T19:22:44.160Z,6.27
2017-10-06T19:25:12.364Z,5.15
2017-10-06T19:27:41.790Z,6.33
2017-10-06T19:30:10.737Z,6.65
2017-10-06T19:32:38.930Z,6.10
2017-10-06T19:35:07.119Z,5.78
2017-10-06T19:37:36.099Z,5.70
2017-10-06T19:40:04.303Z,5.72
2017-10-06T19:42:32.480Z,6.43
2017-10-06T19:45:00.725Z,5.45
2017-10-06T19:47:28.912Z,5.50
2017-10-06T19:49:57.912Z,5.60
2017-10-06T19:52:26.097Z,6.10
2017-10-06T19:54:54.782Z,5.90
2017-10-06T19:57:22.934Z,6.40
2017-10-06T20:02:25.516Z,6.05
2017-10-06T20:10:00.763Z,5.90
2017-10-06T20:12:28.953Z,5.97
2017-10-06T20:17:31.426Z,6.63
2017-10-06T20:19:59.621Z,6.30
2017-10-06T20:22:27.862Z,7.20
2017-10-06T20:24:56.289Z,5.90
2017-10-06T20:27:24.511Z,6.73
2017-10-06T20:29:52.707Z,7.25
2017-10-06T20:37:28.993Z,6.33
2017-10-06T20:39:57.202Z,6.85
2017-10-06T20:52:40.353Z,6.20
2017-10-06T20:57:41.927Z,6.00
2017-10-06T21:00:10.096Z,5.55
2017-10-06T21:02:38.268Z,6.00
2017-10-06T21:05:06.504Z,5.15
2017-10-06T21:12:41.623Z,5.95
2017-10-06T21:15:09.797Z,5.55
2017-10-06T21:22:46.048Z,5.70
2017-10-06T21:30:22.584Z,5.70
2017-10-06T21:35:24.364Z,6.50
2017-10-06T21:40:26.372Z,6.25
2017-10-06T21:45:29.927Z,6.85
2017-10-06T21:50:31.906Z,6.70
2017-10-06T21:53:00.159Z,6.80
2017-10-06T21:58:01.695Z,7.80
2017-10-06T22:00:30.638Z,6.82
2017-10-06T22:02:58.813Z,6.97
2017-10-06T22:13:08.251Z,7.43
2017-10-06T22:15:37.187Z,7.95
2017-10-06T22:18:05.388Z,7.20
2017-10-06T22:20:33.551Z,7.95
2017-10-06T22:23:01.740Z,7.53
2017-10-06T22:25:30.170Z,7.80
2017-10-06T22:27:58.350Z,8.20
2017-10-06T22:33:00.045Z,7.57
2017-10-06T22:35:28.959Z,7.95
2017-10-06T22:40:31.478Z,7.62
2017-10-06T22:58:22.913Z,7.03
2017-10-06T23:03:24.636Z,7.30
2017-10-06T23:05:52.801Z,7.18
2017-10-06T23:08:21.244Z,7.67
2017-10-06T23:10:49.514Z,8.00
2017-10-06T23:15:51.818Z,7.12
2017-10-06T23:20:53.507Z,7.60
2017-10-06T23:25:55.973Z,7.37
2017-10-06T23:28:24.134Z,7.28
2017-10-06T23:43:39.780Z,6.77
2017-10-06T23:46:08.239Z,7.20
2017-10-06T23:51:10.977Z,6.50
2017-10-06T23:56:13.106Z,6.25
2017-10-06T23:58:41.301Z,7.22
